sensor_id;sensor_type;location;lat;lon;timestamp;pressure;altitude;pressure_sealevel;temperature
21336;BMP180;10826;52.536;13.432;2022-11-25T00:01:14;101006.00;;;12.70
21336;BMP180;10826;52.536;13.432;2022-11-25T00:03:41;101003.00;;;12.60
21336;BMP180;10826;52.536;13.432;2022-11-25T00:06:20;101006.00;;;12.70
21336;BMP180;10826;52.536;13.432;2022-11-25T00:08:50;101000.00;;;12.70
21336;BMP180;10826;52.536;13.432;2022-11-25T00:11:17;101004.00;;;12.60
21336;BMP180;10826;52.536;13.432;2022-11-25T00:13:45;100996.00;;;12.70
21336;BMP180;10826;52.536;13.432;2022-11-25T00:16:15;100996.00;;;12.60
21336;BMP180;10826;52.536;13.432;2022-11-25T00:18:51;101005.00;;;12.60
21336;BMP180;10826;52.536;13.432;2022-11-25T00:21:21;101009.00;;;12.70
21336;BMP180;10826;52.536;13.432;2022-11-25T00:24:01;101006.00;;;12.70
21336;BMP180;10826;52.536;13.432;2022-11-25T00:26:29;101000.00;;;12.60
21336;BMP180;10826;52.536;13.432;2022-11-25T00:29:02;100992.00;;;12.60
21336;BMP180;10826;52.536;13.432;2022-11-25T00:31:32;100995.00;;;12.60
21336;BMP180;10826;52.536;13.432;2022-11-25T00:33:58;100996.00;;;12.60
21336;BMP180;10826;52.536;13.432;2022-11-25T00:36:31;101012.00;;;12.70
21336;BMP180;10826;52.536;13.432;2022-11-25T00:39:00;101003.00;;;12.60
21336;BMP180;10826;52.536;13.432;2022-11-25T00:41:27;101004.00;;;12.60
21336;BMP180;10826;52.536;13.432;2022-11-25T00:44:18;101011.00;;;12.70
21336;BMP180;10826;52.536;13.432;2022-11-25T00:47:12;101019.00;;;12.70
21336;BMP180;10826;52.536;13.432;2022-11-25T00:49:41;101012.00;;;12.60
21336;BMP180;10826;52.536;13.432;2022-11-25T00:52:08;101011.00;;;12.70
21336;BMP180;10826;52.536;13.432;2022-11-25T00:54:34;101009.00;;;12.60
21336;BMP180;10826;52.536;13.432;2022-11-25T00:57:01;100995.00;;;12.70
21336;BMP180;10826;52.536;13.432;2022-11-25T00:59:27;101018.00;;;12.70
21336;BMP180;10826;52.536;13.432;2022-11-25T01:01:53;101008.00;;;12.70
21336;BMP180;10826;52.536;13.432;2022-11-25T01:04:19;101013.00;;;12.70
21336;BMP180;10826;52.536;13.432;2022-11-25T01:06:46;101001.00;;;12.70
21336;BMP180;10826;52.536;13.432;2022-11-25T01:09:14;100994.00;;;12.80
21336;BMP180;10826;52.536;13.432;2022-11-25T01:11:40;101006.00;;;12.70
21336;BMP180;10826;52.536;13.432;2022-11-25T01:14:07;101005.00;;;12.80
21336;BMP180;10826;52.536;13.432;2022-11-25T01:16:33;101003.00;;;12.80
21336;BMP180;10826;52.536;13.432;2022-11-25T01:19:00;100999.00;;;12.80
21336;BMP180;10826;52.536;13.432;2022-11-25T01:21:32;101007.00;;;12.80
21336;BMP180;10826;52.536;13.432;2022-11-25T01:24:00;101010.00;;;12.80
21336;BMP180;10826;52.536;13.432;2022-11-25T01:26:28;101001.00;;;12.80
21336;BMP180;10826;52.536;13.432;2022-11-25T01:28:58;101010.00;;;12.80
21336;BMP180;10826;52.536;13.432;2022-11-25T01:31:27;101013.00;;;12.80
21336;BMP180;10826;52.536;13.432;2022-11-25T01:34:00;101008.00;;;12.70
21336;BMP180;10826;52.536;13.432;2022-11-25T01:36:27;100999.00;;;12.80
21336;BMP180;10826;52.536;13.432;2022-11-25T01:38:58;100987.00;;;12.80
21336;BMP180;10826;52.536;13.432;2022-11-25T01:41:28;100998.00;;;12.80
21336;BMP180;10826;52.536;13.432;2022-11-25T01:44:21;100992.00;;;12.90
21336;BMP180;10826;52.536;13.432;2022-11-25T01:47:17;100991.00;;;12.80
21336;BMP180;10826;52.536;13.432;2022-11-25T01:49:56;100967.00;;;12.80
21336;BMP180;10826;52.536;13.432;2022-11-25T01:52:33;100990.00;;;12.80
21336;BMP180;10826;52.536;13.432;2022-11-25T01:55:23;100995.00;;;12.90
21336;BMP180;10826;52.536;13.432;2022-11-25T01:58:20;100988.00;;;12.90
21336;BMP180;10826;52.536;13.432;2022-11-25T02:00:47;100987.00;;;12.80
21336;BMP180;10826;52.536;13.432;2022-11-25T02:03:27;100971.00;;;12.90
21336;BMP180;10826;52.536;13.432;2022-11-25T02:06:23;100979.00;;;12.90
21336;BMP180;10826;52.536;13.432;2022-11-25T02:08:54;100969.00;;;12.90
21336;BMP180;10826;52.536;13.432;2022-11-25T02:11:22;100967.00;;;12.90
21336;BMP180;10826;52.536;13.432;2022-11-25T02:13:51;100965.00;;;12.80
21336;BMP180;10826;52.536;13.432;2022-11-25T02:16:18;100943.00;;;12.90
21336;BMP180;10826;52.536;13.432;2022-11-25T02:18:44;100980.00;;;12.90
21336;BMP180;10826;52.536;13.432;2022-11-25T02:21:14;100967.00;;;13.00
21336;BMP180;10826;52.536;13.432;2022-11-25T02:24:03;100968.00;;;12.90
21336;BMP180;10826;52.536;13.432;2022-11-25T02:26:30;100972.00;;;12.90
21336;BMP180;10826;52.536;13.432;2022-11-25T02:28:56;100909.00;;;12.90
21336;BMP180;10826;52.536;13.432;2022-11-25T02:31:23;100969.00;;;12.90
21336;BMP180;10826;52.536;13.432;2022-11-25T02:33:50;100965.00;;;12.90
21336;BMP180;10826;52.536;13.432;2022-11-25T02:36:19;100965.00;;;12.90
21336;BMP180;10826;52.536;13.432;2022-11-25T02:38:58;100957.00;;;13.00
21336;BMP180;10826;52.536;13.432;2022-11-25T02:41:34;100973.00;;;13.00
21336;BMP180;10826;52.536;13.432;2022-11-25T02:44:02;100962.00;;;12.90
21336;BMP180;10826;52.536;13.432;2022-11-25T02:46:29;100975.00;;;12.90
21336;BMP180;10826;52.536;13.432;2022-11-25T02:48:58;100969.00;;;12.90
21336;BMP180;10826;52.536;13.432;2022-11-25T02:51:28;100964.00;;;12.90
21336;BMP180;10826;52.536;13.432;2022-11-25T02:53:55;100970.00;;;12.90
21336;BMP180;10826;52.536;13.432;2022-11-25T02:56:26;100982.00;;;12.90
21336;BMP180;10826;52.536;13.432;2022-11-25T02:58:52;100974.00;;;12.90
21336;BMP180;10826;52.536;13.432;2022-11-25T03:01:18;100978.00;;;12.90
21336;BMP180;10826;52.536;13.432;2022-11-25T03:03:45;100985.00;;;12.90
21336;BMP180;10826;52.536;13.432;2022-11-25T03:06:11;100992.00;;;12.90
21336;BMP180;10826;52.536;13.432;2022-11-25T03:08:36;100986.00;;;12.90
21336;BMP180;10826;52.536;13.432;2022-11-25T03:11:03;101002.00;;;12.90
21336;BMP180;10826;52.536;13.432;2022-11-25T03:13:29;100990.00;;;12.90
21336;BMP180;10826;52.536;13.432;2022-11-25T03:15:55;100953.00;;;12.90
21336;BMP180;10826;52.536;13.432;2022-11-25T03:18:21;101001.00;;;12.90
21336;BMP180;10826;52.536;13.432;2022-11-25T03:20:52;100991.00;;;13.00
21336;BMP180;10826;52.536;13.432;2022-11-25T03:23:18;101000.00;;;12.90
21336;BMP180;10826;52.536;13.432;2022-11-25T03:25:44;101004.00;;;12.90
21336;BMP180;10826;52.536;13.432;2022-11-25T03:28:09;101003.00;;;12.90
21336;BMP180;10826;52.536;13.432;2022-11-25T03:30:35;101002.00;;;13.00
21336;BMP180;10826;52.536;13.432;2022-11-25T03:33:01;101001.00;;;13.00
21336;BMP180;10826;52.536;13.432;2022-11-25T03:35:27;101005.00;;;13.00
21336;BMP180;10826;52.536;13.432;2022-11-25T03:37:54;101007.00;;;13.00
21336;BMP180;10826;52.536;13.432;2022-11-25T03:40:20;100999.00;;;13.00
21336;BMP180;10826;52.536;13.432;2022-11-25T03:42:46;101002.00;;;13.00
21336;BMP180;10826;52.536;13.432;2022-11-25T03:45:14;101009.00;;;13.00
21336;BMP180;10826;52.536;13.432;2022-11-25T03:47:42;100993.00;;;13.00
21336;BMP180;10826;52.536;13.432;2022-11-25T03:50:12;100995.00;;;13.10
21336;BMP180;10826;52.536;13.432;2022-11-25T03:52:38;101007.00;;;13.00
21336;BMP180;10826;52.536;13.432;2022-11-25T03:55:06;100973.00;;;13.00
21336;BMP180;10826;52.536;13.432;2022-11-25T03:57:33;101004.00;;;13.00
21336;BMP180;10826;52.536;13.432;2022-11-25T03:59:58;100996.00;;;13.00
21336;BMP180;10826;52.536;13.432;2022-11-25T04:02:24;100992.00;;;13.00
21336;BMP180;10826;52.536;13.432;2022-11-25T04:04:50;100985.00;;;13.00
21336;BMP180;10826;52.536;13.432;2022-11-25T04:07:16;100986.00;;;13.00
21336;BMP180;10826;52.536;13.432;2022-11-25T04:09:42;101003.00;;;13.00
21336;BMP180;10826;52.536;13.432;2022-11-25T04:12:09;101011.00;;;13.00
21336;BMP180;10826;52.536;13.432;2022-11-25T04:14:54;101000.00;;;13.10
21336;BMP180;10826;52.536;13.432;2022-11-25T04:17:20;101001.00;;;13.10
21336;BMP180;10826;52.536;13.432;2022-11-25T04:19:46;101000.00;;;13.10
21336;BMP180;10826;52.536;13.432;2022-11-25T04:22:12;101008.00;;;13.10
21336;BMP180;10826;52.536;13.432;2022-11-25T04:24:37;100994.00;;;13.10
21336;BMP180;10826;52.536;13.432;2022-11-25T04:27:03;101008.00;;;13.10
21336;BMP180;10826;52.536;13.432;2022-11-25T04:29:29;101004.00;;;13.10
21336;BMP180;10826;52.536;13.432;2022-11-25T04:31:55;101008.00;;;13.10
21336;BMP180;10826;52.536;13.432;2022-11-25T04:34:20;101027.00;;;13.10
21336;BMP180;10826;52.536;13.432;2022-11-25T04:36:46;101012.00;;;13.10
21336;BMP180;10826;52.536;13.432;2022-11-25T04:39:12;101019.00;;;13.10
21336;BMP180;10826;52.536;13.432;2022-11-25T04:41:38;101017.00;;;13.10
21336;BMP180;10826;52.536;13.432;2022-11-25T04:44:04;101034.00;;;13.10
21336;BMP180;10826;52.536;13.432;2022-11-25T04:46:39;101021.00;;;13.10
21336;BMP180;10826;52.536;13.432;2022-11-25T04:49:06;100990.00;;;13.10
21336;BMP180;10826;52.536;13.432;2022-11-25T04:51:32;101005.00;;;13.10
21336;BMP180;10826;52.536;13.432;2022-11-25T04:53:58;101006.00;;;13.10
21336;BMP180;10826;52.536;13.432;2022-11-25T04:56:24;101027.00;;;13.10
21336;BMP180;10826;52.536;13.432;2022-11-25T04:58:50;101025.00;;;13.10
21336;BMP180;10826;52.536;13.432;2022-11-25T05:01:34;101030.00;;;13.10
21336;BMP180;10826;52.536;13.432;2022-11-25T05:04:00;101030.00;;;13.10
21336;BMP180;10826;52.536;13.432;2022-11-25T05:06:26;101014.00;;;13.10
21336;BMP180;10826;52.536;13.432;2022-11-25T05:08:52;101010.00;;;13.10
21336;BMP180;10826;52.536;13.432;2022-11-25T05:11:18;101002.00;;;13.10
21336;BMP180;10826;52.536;13.432;2022-11-25T05:13:44;101006.00;;;13.10
21336;BMP180;10826;52.536;13.432;2022-11-25T05:16:10;101024.00;;;13.10
21336;BMP180;10826;52.536;13.432;2022-11-25T05:18:36;101028.00;;;13.10
21336;BMP180;10826;52.536;13.432;2022-11-25T05:21:03;101017.00;;;13.10
21336;BMP180;10826;52.536;13.432;2022-11-25T05:23:30;101000.00;;;13.10
21336;BMP180;10826;52.536;13.432;2022-11-25T05:26:05;101033.00;;;13.10
21336;BMP180;10826;52.536;13.432;2022-11-25T05:28:31;101023.00;;;13.10
21336;BMP180;10826;52.536;13.432;2022-11-25T05:30:57;101033.00;;;13.10
21336;BMP180;10826;52.536;13.432;2022-11-25T05:33:23;101027.00;;;13.10
21336;BMP180;10826;52.536;13.432;2022-11-25T05:36:00;101046.00;;;13.10
21336;BMP180;10826;52.536;13.432;2022-11-25T05:38:27;101039.00;;;13.10
21336;BMP180;10826;52.536;13.432;2022-11-25T05:40:59;101030.00;;;13.10
21336;BMP180;10826;52.536;13.432;2022-11-25T05:43:25;101037.00;;;13.10
21336;BMP180;10826;52.536;13.432;2022-11-25T05:45:51;101003.00;;;13.10
21336;BMP180;10826;52.536;13.432;2022-11-25T05:48:17;101052.00;;;13.10
21336;BMP180;10826;52.536;13.432;2022-11-25T05:50:43;101048.00;;;13.10
21336;BMP180;10826;52.536;13.432;2022-11-25T05:53:08;101040.00;;;13.10
21336;BMP180;10826;52.536;13.432;2022-11-25T05:55:36;101050.00;;;13.10
21336;BMP180;10826;52.536;13.432;2022-11-25T05:58:02;101045.00;;;13.10
21336;BMP180;10826;52.536;13.432;2022-11-25T06:00:31;101053.00;;;13.10
21336;BMP180;10826;52.536;13.432;2022-11-25T06:02:57;101025.00;;;13.10
21336;BMP180;10826;52.536;13.432;2022-11-25T06:05:23;101049.00;;;13.10
21336;BMP180;10826;52.536;13.432;2022-11-25T06:07:50;101052.00;;;13.10
21336;BMP180;10826;52.536;13.432;2022-11-25T06:10:17;101043.00;;;13.10
21336;BMP180;10826;52.536;13.432;2022-11-25T06:12:43;101048.00;;;13.10
21336;BMP180;10826;52.536;13.432;2022-11-25T06:15:10;101044.00;;;13.10
21336;BMP180;10826;52.536;13.432;2022-11-25T06:17:36;101044.00;;;13.10
21336;BMP180;10826;52.536;13.432;2022-11-25T06:20:05;101058.00;;;13.20
21336;BMP180;10826;52.536;13.432;2022-11-25T06:22:31;101044.00;;;13.10
21336;BMP180;10826;52.536;13.432;2022-11-25T06:24:57;101045.00;;;13.10
21336;BMP180;10826;52.536;13.432;2022-11-25T06:27:23;101044.00;;;13.10
21336;BMP180;10826;52.536;13.432;2022-11-25T06:29:49;101040.00;;;13.10
21336;BMP180;10826;52.536;13.432;2022-11-25T06:32:14;101047.00;;;13.10
21336;BMP180;10826;52.536;13.432;2022-11-25T06:34:40;101037.00;;;13.10
21336;BMP180;10826;52.536;13.432;2022-11-25T06:37:07;101036.00;;;13.00
21336;BMP180;10826;52.536;13.432;2022-11-25T06:39:33;101032.00;;;12.90
21336;BMP180;10826;52.536;13.432;2022-11-25T06:41:59;101043.00;;;12.90
21336;BMP180;10826;52.536;13.432;2022-11-25T06:44:25;101033.00;;;12.90
21336;BMP180;10826;52.536;13.432;2022-11-25T06:46:51;101042.00;;;12.80
21336;BMP180;10826;52.536;13.432;2022-11-25T06:49:17;101045.00;;;12.70
21336;BMP180;10826;52.536;13.432;2022-11-25T06:51:43;101059.00;;;12.70
21336;BMP180;10826;52.536;13.432;2022-11-25T06:54:08;101020.00;;;12.70
21336;BMP180;10826;52.536;13.432;2022-11-25T06:56:35;101057.00;;;12.60
21336;BMP180;10826;52.536;13.432;2022-11-25T06:59:01;101056.00;;;12.60
21336;BMP180;10826;52.536;13.432;2022-11-25T07:01:29;101073.00;;;12.60
21336;BMP180;10826;52.536;13.432;2022-11-25T07:03:59;101069.00;;;12.70
21336;BMP180;10826;52.536;13.432;2022-11-25T07:06:26;101064.00;;;12.60
21336;BMP180;10826;52.536;13.432;2022-11-25T07:08:52;101071.00;;;12.60
21336;BMP180;10826;52.536;13.432;2022-11-25T07:11:31;101071.00;;;12.70
21336;BMP180;10826;52.536;13.432;2022-11-25T07:14:05;101079.00;;;12.60
21336;BMP180;10826;52.536;13.432;2022-11-25T07:16:32;101078.00;;;12.60
21336;BMP180;10826;52.536;13.432;2022-11-25T07:19:00;101090.00;;;12.60
21336;BMP180;10826;52.536;13.432;2022-11-25T07:21:28;101083.00;;;12.70
21336;BMP180;10826;52.536;13.432;2022-11-25T07:23:56;101060.00;;;12.60
21336;BMP180;10826;52.536;13.432;2022-11-25T07:26:26;101109.00;;;12.70
21336;BMP180;10826;52.536;13.432;2022-11-25T07:28:54;101093.00;;;12.70
21336;BMP180;10826;52.536;13.432;2022-11-25T07:31:24;101096.00;;;12.70
21336;BMP180;10826;52.536;13.432;2022-11-25T07:33:53;101100.00;;;12.70
21336;BMP180;10826;52.536;13.432;2022-11-25T07:36:21;101112.00;;;12.70
21336;BMP180;10826;52.536;13.432;2022-11-25T07:38:47;101122.00;;;12.80
21336;BMP180;10826;52.536;13.432;2022-11-25T07:41:17;101119.00;;;12.80
21336;BMP180;10826;52.536;13.432;2022-11-25T07:43:49;101125.00;;;12.80
21336;BMP180;10826;52.536;13.432;2022-11-25T07:46:20;101113.00;;;12.80
21336;BMP180;10826;52.536;13.432;2022-11-25T07:48:47;101095.00;;;12.90
21336;BMP180;10826;52.536;13.432;2022-11-25T07:51:23;101112.00;;;13.00
21336;BMP180;10826;52.536;13.432;2022-11-25T07:53:52;101095.00;;;13.00
21336;BMP180;10826;52.536;13.432;2022-11-25T07:56:18;101109.00;;;13.00
21336;BMP180;10826;52.536;13.432;2022-11-25T07:58:44;101107.00;;;13.00
21336;BMP180;10826;52.536;13.432;2022-11-25T08:01:13;101105.00;;;13.10
21336;BMP180;10826;52.536;13.432;2022-11-25T08:03:42;101112.00;;;13.10
21336;BMP180;10826;52.536;13.432;2022-11-25T08:06:12;101101.00;;;13.10
21336;BMP180;10826;52.536;13.432;2022-11-25T08:08:40;101096.00;;;13.10
21336;BMP180;10826;52.536;13.432;2022-11-25T08:11:17;101104.00;;;13.20
21336;BMP180;10826;52.536;13.432;2022-11-25T08:13:44;101106.00;;;13.20
21336;BMP180;10826;52.536;13.432;2022-11-25T08:16:12;101105.00;;;13.20
21336;BMP180;10826;52.536;13.432;2022-11-25T08:18:40;101105.00;;;13.20
21336;BMP180;10826;52.536;13.432;2022-11-25T08:21:11;101123.00;;;13.30
21336;BMP180;10826;52.536;13.432;2022-11-25T08:23:40;101127.00;;;13.30
21336;BMP180;10826;52.536;13.432;2022-11-25T08:26:10;101123.00;;;13.30
21336;BMP180;10826;52.536;13.432;2022-11-25T08:28:38;101122.00;;;13.30
21336;BMP180;10826;52.536;13.432;2022-11-25T08:31:11;101123.00;;;13.30
21336;BMP180;10826;52.536;13.432;2022-11-25T08:33:37;101124.00;;;13.30
21336;BMP180;10826;52.536;13.432;2022-11-25T08:36:04;101122.00;;;13.30
21336;BMP180;10826;52.536;13.432;2022-11-25T08:38:31;101120.00;;;13.40
21336;BMP180;10826;52.536;13.432;2022-11-25T08:40:57;101124.00;;;13.40
21336;BMP180;10826;52.536;13.432;2022-11-25T08:43:24;101129.00;;;13.40
21336;BMP180;10826;52.536;13.432;2022-11-25T08:45:50;101125.00;;;13.50
21336;BMP180;10826;52.536;13.432;2022-11-25T08:48:18;101126.00;;;13.50
21336;BMP180;10826;52.536;13.432;2022-11-25T08:50:50;101129.00;;;13.60
21336;BMP180;10826;52.536;13.432;2022-11-25T08:53:18;101128.00;;;13.60
21336;BMP180;10826;52.536;13.432;2022-11-25T08:55:45;101122.00;;;13.60
21336;BMP180;10826;52.536;13.432;2022-11-25T08:58:11;101130.00;;;13.60
21336;BMP180;10826;52.536;13.432;2022-11-25T09:00:43;101127.00;;;13.70
21336;BMP180;10826;52.536;13.432;2022-11-25T09:03:10;101140.00;;;13.70
21336;BMP180;10826;52.536;13.432;2022-11-25T09:05:41;101139.00;;;13.80
21336;BMP180;10826;52.536;13.432;2022-11-25T09:08:08;101137.00;;;13.70
21336;BMP180;10826;52.536;13.432;2022-11-25T09:10:37;101122.00;;;13.70
21336;BMP180;10826;52.536;13.432;2022-11-25T09:13:03;101101.00;;;13.80
21336;BMP180;10826;52.536;13.432;2022-11-25T09:15:30;101141.00;;;13.80
21336;BMP180;10826;52.536;13.432;2022-11-25T09:18:07;101133.00;;;13.90
21336;BMP180;10826;52.536;13.432;2022-11-25T09:20:37;101150.00;;;13.90
21336;BMP180;10826;52.536;13.432;2022-11-25T09:23:03;101140.00;;;13.80
21336;BMP180;10826;52.536;13.432;2022-11-25T09:25:29;101147.00;;;13.90
21336;BMP180;10826;52.536;13.432;2022-11-25T09:27:55;101146.00;;;13.90
21336;BMP180;10826;52.536;13.432;2022-11-25T09:30:23;101149.00;;;14.00
21336;BMP180;10826;52.536;13.432;2022-11-25T09:32:52;101138.00;;;14.00
21336;BMP180;10826;52.536;13.432;2022-11-25T09:35:18;101131.00;;;14.00
21336;BMP180;10826;52.536;13.432;2022-11-25T09:37:45;101135.00;;;14.10
21336;BMP180;10826;52.536;13.432;2022-11-25T09:40:33;101143.00;;;14.10
21336;BMP180;10826;52.536;13.432;2022-11-25T09:43:31;101136.00;;;14.20
21336;BMP180;10826;52.536;13.432;2022-11-25T09:46:44;101141.00;;;14.20
21336;BMP180;10826;52.536;13.432;2022-11-25T09:55:16;101152.00;;;14.20
21336;BMP180;10826;52.536;13.432;2022-11-25T09:58:31;101139.00;;;14.30
21336;BMP180;10826;52.536;13.432;2022-11-25T10:00:59;101133.00;;;14.20
21336;BMP180;10826;52.536;13.432;2022-11-25T10:03:48;101137.00;;;14.30
21336;BMP180;10826;52.536;13.432;2022-11-25T10:06:26;101127.00;;;14.30
21336;BMP180;10826;52.536;13.432;2022-11-25T10:09:00;101127.00;;;14.30
21336;BMP180;10826;52.536;13.432;2022-11-25T10:12:08;101138.00;;;14.40
21336;BMP180;10826;52.536;13.432;2022-11-25T10:14:48;101127.00;;;14.40
21336;BMP180;10826;52.536;13.432;2022-11-25T10:17:35;101119.00;;;14.40
21336;BMP180;10826;52.536;13.432;2022-11-25T10:20:20;101074.00;;;14.50
21336;BMP180;10826;52.536;13.432;2022-11-25T10:22:51;101132.00;;;14.50
21336;BMP180;10826;52.536;13.432;2022-11-25T10:25:26;101089.00;;;14.50
21336;BMP180;10826;52.536;13.432;2022-11-25T10:28:17;101122.00;;;14.50
21336;BMP180;10826;52.536;13.432;2022-11-25T10:33:37;101135.00;;;14.60
21336;BMP180;10826;52.536;13.432;2022-11-25T10:36:14;101127.00;;;14.50
21336;BMP180;10826;52.536;13.432;2022-11-25T10:41:38;101109.00;;;14.60
21336;BMP180;10826;52.536;13.432;2022-11-25T10:44:31;101119.00;;;14.60
21336;BMP180;10826;52.536;13.432;2022-11-25T10:47:36;101085.00;;;14.60
21336;BMP180;10826;52.536;13.432;2022-11-25T10:53:26;101113.00;;;14.60
21336;BMP180;10826;52.536;13.432;2022-11-25T10:56:10;101130.00;;;14.60
21336;BMP180;10826;52.536;13.432;2022-11-25T10:58:39;101136.00;;;14.70
21336;BMP180;10826;52.536;13.432;2022-11-25T11:01:21;101122.00;;;14.80
21336;BMP180;10826;52.536;13.432;2022-11-25T11:04:14;101131.00;;;14.90
21336;BMP180;10826;52.536;13.432;2022-11-25T11:06:44;101137.00;;;14.90
21336;BMP180;10826;52.536;13.432;2022-11-25T11:09:37;101149.00;;;14.90
21336;BMP180;10826;52.536;13.432;2022-11-25T11:12:26;101139.00;;;15.00
21336;BMP180;10826;52.536;13.432;2022-11-25T11:15:17;101133.00;;;15.00
21336;BMP180;10826;52.536;13.432;2022-11-25T11:17:43;101130.00;;;15.00
21336;BMP180;10826;52.536;13.432;2022-11-25T11:20:23;101138.00;;;15.00
21336;BMP180;10826;52.536;13.432;2022-11-25T11:23:06;101125.00;;;15.00
21336;BMP180;10826;52.536;13.432;2022-11-25T11:25:37;101132.00;;;15.00
21336;BMP180;10826;52.536;13.432;2022-11-25T11:31:13;101116.00;;;15.10
21336;BMP180;10826;52.536;13.432;2022-11-25T11:34:12;101129.00;;;15.10
21336;BMP180;10826;52.536;13.432;2022-11-25T11:37:21;101128.00;;;15.10
21336;BMP180;10826;52.536;13.432;2022-11-25T11:40:13;101125.00;;;15.00
21336;BMP180;10826;52.536;13.432;2022-11-25T11:48:34;101120.00;;;14.90
21336;BMP180;10826;52.536;13.432;2022-11-25T11:54:32;101110.00;;;14.90
21336;BMP180;10826;52.536;13.432;2022-11-25T11:57:18;101123.00;;;14.90
21336;BMP180;10826;52.536;13.432;2022-11-25T11:59:52;101123.00;;;14.90
21336;BMP180;10826;52.536;13.432;2022-11-25T12:02:48;101119.00;;;14.90
21336;BMP180;10826;52.536;13.432;2022-11-25T12:05:23;101108.00;;;14.80
21336;BMP180;10826;52.536;13.432;2022-11-25T12:08:17;101106.00;;;14.80
21336;BMP180;10826;52.536;13.432;2022-11-25T12:11:04;101094.00;;;14.60
21336;BMP180;10826;52.536;13.432;2022-11-25T12:13:48;101105.00;;;14.70
21336;BMP180;10826;52.536;13.432;2022-11-25T12:16:26;101102.00;;;14.60
21336;BMP180;10826;52.536;13.432;2022-11-25T12:19:15;101101.00;;;14.60
21336;BMP180;10826;52.536;13.432;2022-11-25T12:22:03;101080.00;;;14.60
21336;BMP180;10826;52.536;13.432;2022-11-25T12:25:09;101096.00;;;14.50
21336;BMP180;10826;52.536;13.432;2022-11-25T12:27:43;101108.00;;;14.40
21336;BMP180;10826;52.536;13.432;2022-11-25T12:30:19;101100.00;;;14.40
21336;BMP180;10826;52.536;13.432;2022-11-25T12:33:33;101105.00;;;14.30
21336;BMP180;10826;52.536;13.432;2022-11-25T12:36:11;101104.00;;;14.20
21336;BMP180;10826;52.536;13.432;2022-11-25T12:39:11;101109.00;;;14.20
21336;BMP180;10826;52.536;13.432;2022-11-25T12:41:46;101103.00;;;14.10
21336;BMP180;10826;52.536;13.432;2022-11-25T12:44:48;101104.00;;;14.20
21336;BMP180;10826;52.536;13.432;2022-11-25T12:47:14;101114.00;;;14.10
21336;BMP180;10826;52.536;13.432;2022-11-25T12:49:45;101104.00;;;14.00
21336;BMP180;10826;52.536;13.432;2022-11-25T12:52:29;101107.00;;;14.00
21336;BMP180;10826;52.536;13.432;2022-11-25T12:58:15;101111.00;;;14.00
21336;BMP180;10826;52.536;13.432;2022-11-25T13:01:15;101108.00;;;13.90
21336;BMP180;10826;52.536;13.432;2022-11-25T13:04:16;101105.00;;;13.90
21336;BMP180;10826;52.536;13.432;2022-11-25T13:07:24;101082.00;;;13.90
21336;BMP180;10826;52.536;13.432;2022-11-25T13:10:35;101105.00;;;13.90
21336;BMP180;10826;52.536;13.432;2022-11-25T13:13:37;101114.00;;;13.90
21336;BMP180;10826;52.536;13.432;2022-11-25T13:16:10;101108.00;;;13.80
21336;BMP180;10826;52.536;13.432;2022-11-25T13:18:41;101091.00;;;13.90
21336;BMP180;10826;52.536;13.432;2022-11-25T13:21:14;101108.00;;;13.90
21336;BMP180;10826;52.536;13.432;2022-11-25T13:23:44;101114.00;;;13.90
21336;BMP180;10826;52.536;13.432;2022-11-25T13:34:31;101130.00;;;14.20
21336;BMP180;10826;52.536;13.432;2022-11-25T13:42:49;101144.00;;;14.20
21336;BMP180;10826;52.536;13.432;2022-11-25T13:45:42;101145.00;;;14.30
21336;BMP180;10826;52.536;13.432;2022-11-25T13:48:20;101147.00;;;14.20
21336;BMP180;10826;52.536;13.432;2022-11-25T13:50:49;101150.00;;;14.20
21336;BMP180;10826;52.536;13.432;2022-11-25T13:53:34;101144.00;;;14.30
21336;BMP180;10826;52.536;13.432;2022-11-25T13:59:17;101149.00;;;14.30
21336;BMP180;10826;52.536;13.432;2022-11-25T14:01:52;101147.00;;;14.30
21336;BMP180;10826;52.536;13.432;2022-11-25T14:04:49;101119.00;;;14.30
21336;BMP180;10826;52.536;13.432;2022-11-25T14:07:50;101147.00;;;14.30
21336;BMP180;10826;52.536;13.432;2022-11-25T14:11:24;101137.00;;;14.30
21336;BMP180;10826;52.536;13.432;2022-11-25T14:13:52;101157.00;;;14.30
21336;BMP180;10826;52.536;13.432;2022-11-25T14:20:04;101156.00;;;14.30
21336;BMP180;10826;52.536;13.432;2022-11-25T14:22:59;101157.00;;;14.30
21336;BMP180;10826;52.536;13.432;2022-11-25T14:25:41;101161.00;;;14.30
21336;BMP180;10826;52.536;13.432;2022-11-25T14:28:28;101161.00;;;14.30
21336;BMP180;10826;52.536;13.432;2022-11-25T14:30:59;101163.00;;;14.30
21336;BMP180;10826;52.536;13.432;2022-11-25T14:33:59;101174.00;;;14.30
21336;BMP180;10826;52.536;13.432;2022-11-25T14:36:44;101161.00;;;14.30
21336;BMP180;10826;52.536;13.432;2022-11-25T14:39:33;101156.00;;;14.30
21336;BMP180;10826;52.536;13.432;2022-11-25T14:42:14;101164.00;;;14.30
21336;BMP180;10826;52.536;13.432;2022-11-25T14:44:51;101174.00;;;14.30
21336;BMP180;10826;52.536;13.432;2022-11-25T14:47:22;101171.00;;;14.20
21336;BMP180;10826;52.536;13.432;2022-11-25T14:49:51;101183.00;;;14.20
21336;BMP180;10826;52.536;13.432;2022-11-25T14:52:28;101184.00;;;14.30
21336;BMP180;10826;52.536;13.432;2022-11-25T14:54:57;101178.00;;;14.20
21336;BMP180;10826;52.536;13.432;2022-11-25T14:57:33;101192.00;;;14.10
21336;BMP180;10826;52.536;13.432;2022-11-25T15:00:12;101193.00;;;14.20
21336;BMP180;10826;52.536;13.432;2022-11-25T15:02:51;101194.00;;;14.20
21336;BMP180;10826;52.536;13.432;2022-11-25T15:05:22;101197.00;;;14.20
21336;BMP180;10826;52.536;13.432;2022-11-25T15:08:15;101171.00;;;14.20
21336;BMP180;10826;52.536;13.432;2022-11-25T15:11:00;101204.00;;;14.20